createdAt,value
2023-07-07T00:00:30.202Z,4.90
2023-07-07T00:03:18.367Z,6.32
2023-07-07T00:05:47.278Z,5.13
2023-07-07T00:08:15.722Z,5.22
2023-07-07T00:10:44.089Z,6.35
2023-07-07T00:13:15.233Z,4.78
2023-07-07T00:15:45.892Z,6.05
2023-07-07T00:18:27.550Z,5.88
2023-07-07T00:21:00.539Z,5.88
2023-07-07T00:23:40.074Z,5.53
2023-07-07T00:26:10.028Z,4.78
2023-07-07T00:28:38.206Z,5.82
2023-07-07T00:31:06.095Z,4.78
2023-07-07T00:33:34.292Z,5.78
2023-07-07T00:36:02.138Z,7.25
2023-07-07T00:38:30.257Z,6.57
2023-07-07T00:41:03.316Z,4.95
2023-07-07T00:43:32.241Z,5.40
2023-07-07T00:46:01.245Z,5.47
2023-07-07T00:48:36.456Z,5.60
2023-07-07T00:51:15.448Z,5.80
2023-07-07T00:53:46.745Z,5.78
2023-07-07T00:56:29.626Z,5.13
2023-07-07T00:59:04.965Z,4.93
2023-07-07T01:01:39.952Z,5.05
2023-07-07T01:04:13.087Z,4.93
2023-07-07T01:06:44.897Z,6.38
2023-07-07T01:09:13.187Z,4.75
2023-07-07T01:11:41.024Z,6.43
2023-07-07T01:14:19.060Z,5.43
2023-07-07T01:17:04.107Z,4.80
2023-07-07T01:19:53.844Z,5.65
2023-07-07T01:22:52.849Z,6.10
2023-07-07T01:25:30.155Z,5.78
2023-07-07T01:28:02.023Z,5.20
2023-07-07T01:30:30.419Z,5.43
2023-07-07T01:33:00.390Z,6.05
2023-07-07T01:35:28.851Z,5.40
2023-07-07T01:38:00.107Z,5.85
2023-07-07T01:43:12.168Z,4.75
2023-07-07T01:45:53.972Z,7.63
2023-07-07T01:50:57.906Z,5.00
2023-07-07T01:53:29.455Z,5.15
2023-07-07T01:56:00.792Z,5.25
2023-07-07T02:01:01.582Z,7.43
2023-07-07T02:03:30.131Z,5.80
2023-07-07T02:05:58.151Z,4.75
2023-07-07T02:08:26.008Z,6.07
2023-07-07T02:10:54.062Z,4.95
2023-07-07T02:13:24.446Z,6.07
2023-07-07T02:15:53.163Z,5.05
2023-07-07T02:18:21.646Z,5.40
2023-07-07T02:20:52.180Z,5.93
2023-07-07T02:23:22.189Z,6.38
2023-07-07T02:25:50.280Z,6.53
2023-07-07T02:28:18.131Z,6.93
2023-07-07T02:30:46.387Z,6.63
2023-07-07T02:33:14.227Z,7.75
2023-07-07T02:35:42.573Z,6.03
2023-07-07T02:38:10.378Z,6.13
2023-07-07T02:40:39.596Z,5.63
2023-07-07T02:43:07.406Z,6.75
2023-07-07T02:45:35.657Z,5.97
2023-07-07T02:48:03.959Z,6.78
2023-07-07T02:50:32.128Z,4.47
2023-07-07T02:52:59.960Z,5.25
2023-07-07T02:55:28.107Z,5.00
2023-07-07T02:57:55.909Z,7.07
2023-07-07T03:00:25.300Z,5.78
2023-07-07T03:02:53.224Z,6.35
2023-07-07T03:05:21.432Z,6.38
2023-07-07T03:07:49.243Z,5.35
2023-07-07T03:10:17.475Z,7.45
2023-07-07T03:12:45.288Z,4.80
2023-07-07T03:15:13.526Z,5.65
2023-07-07T03:17:46.497Z,6.70
2023-07-07T03:20:15.043Z,6.18
2023-07-07T03:22:43.304Z,7.43
2023-07-07T03:25:12.202Z,5.63
2023-07-07T03:27:47.312Z,6.88
2023-07-07T03:30:24.437Z,5.65
2023-07-07T03:33:06.606Z,5.88
2023-07-07T03:35:35.376Z,7.80
2023-07-07T03:38:03.942Z,8.10
2023-07-07T03:40:32.480Z,6.13
2023-07-07T03:43:03.290Z,5.90
2023-07-07T03:45:35.624Z,6.82
2023-07-07T03:48:05.108Z,7.70
2023-07-07T03:50:33.593Z,6.90
2023-07-07T03:53:02.901Z,6.50
2023-07-07T03:55:31.865Z,5.63
2023-07-07T03:57:59.620Z,5.82
2023-07-07T04:00:27.666Z,6.85
2023-07-07T04:02:55.851Z,5.75
2023-07-07T04:05:24.144Z,6.53
2023-07-07T04:07:51.974Z,6.68
2023-07-07T04:10:20.010Z,6.57
2023-07-07T04:12:48.153Z,6.75
2023-07-07T04:15:18.132Z,6.25
2023-07-07T04:17:46.348Z,7.13
2023-07-07T04:20:14.464Z,5.45
2023-07-07T04:22:44.059Z,6.70
2023-07-07T04:25:14.791Z,6.53
2023-07-07T04:27:43.772Z,6.13
2023-07-07T04:30:13.131Z,5.68
2023-07-07T04:32:41.332Z,6.50
2023-07-07T04:35:09.873Z,6.00
2023-07-07T04:37:37.753Z,6.93
2023-07-07T04:40:06.455Z,7.47
2023-07-07T04:42:34.225Z,7.25
2023-07-07T04:45:02.263Z,6.63
2023-07-07T04:47:30.137Z,6.13
2023-07-07T04:49:58.344Z,6.13
2023-07-07T04:52:26.080Z,6.45
2023-07-07T04:54:54.127Z,6.45
2023-07-07T04:57:21.882Z,6.00
2023-07-07T04:59:50.785Z,6.57
2023-07-07T05:02:24.060Z,7.43
2023-07-07T05:04:52.331Z,6.68
2023-07-07T05:07:21.035Z,7.30
2023-07-07T05:09:49.078Z,6.57
2023-07-07T05:12:17.576Z,6.80
2023-07-07T05:14:45.748Z,8.02
2023-07-07T05:17:13.691Z,7.43
2023-07-07T05:19:43.014Z,8.50
2023-07-07T05:22:10.776Z,8.13
2023-07-07T05:24:41.376Z,5.65
2023-07-07T05:27:09.244Z,7.50
2023-07-07T05:29:40.046Z,5.45
2023-07-07T05:32:08.305Z,7.03
2023-07-07T05:34:36.373Z,6.30
2023-07-07T05:37:05.866Z,8.07
2023-07-07T05:39:34.976Z,5.60
2023-07-07T05:42:02.779Z,8.45
2023-07-07T05:44:30.938Z,5.88
2023-07-07T05:46:58.800Z,6.55
2023-07-07T05:49:26.803Z,7.88
2023-07-07T05:51:54.582Z,5.53
2023-07-07T05:54:25.510Z,6.28
2023-07-07T05:56:55.537Z,5.17
2023-07-07T05:59:24.482Z,6.35
2023-07-07T06:01:52.264Z,7.53
2023-07-07T06:04:21.316Z,7.18
2023-07-07T06:06:49.315Z,7.72
2023-07-07T06:09:17.344Z,8.43
2023-07-07T06:11:48.850Z,9.57
2023-07-07T06:14:16.978Z,8.63
2023-07-07T06:16:44.872Z,7.32
2023-07-07T06:19:15.695Z,7.60
2023-07-07T06:21:43.601Z,7.38
2023-07-07T06:24:11.644Z,7.38
2023-07-07T06:26:39.443Z,5.80
2023-07-07T06:29:07.636Z,8.23
2023-07-07T06:31:35.443Z,8.63
2023-07-07T06:34:03.561Z,6.53
2023-07-07T06:36:31.407Z,7.35
2023-07-07T06:38:59.583Z,5.80
2023-07-07T06:43:49.851Z,7.75
2023-07-07T06:46:19.550Z,7.82
2023-07-07T06:48:47.275Z,9.00
2023-07-07T06:51:15.305Z,8.55
2023-07-07T06:53:43.165Z,6.35
2023-07-07T06:56:11.452Z,7.30
2023-07-07T06:58:39.524Z,8.68
2023-07-07T07:01:14.385Z,6.75
2023-07-07T07:03:44.341Z,7.20
2023-07-07T07:06:14.292Z,7.60
2023-07-07T07:08:43.978Z,8.23
2023-07-07T07:11:12.080Z,7.15
2023-07-07T07:13:39.866Z,8.90
2023-07-07T07:16:07.959Z,9.80
2023-07-07T07:18:35.884Z,6.57
2023-07-07T07:21:04.035Z,9.50
2023-07-07T07:23:33.383Z,7.28
2023-07-07T07:26:02.602Z,8.82
2023-07-07T07:28:30.664Z,7.85
2023-07-07T07:30:59.038Z,6.88
2023-07-07T07:33:27.083Z,7.40
2023-07-07T07:35:55.096Z,9.20
2023-07-07T07:38:23.024Z,8.05
2023-07-07T07:40:54.752Z,7.45
2023-07-07T07:43:22.860Z,7.55
2023-07-07T07:45:50.910Z,6.75
2023-07-07T07:48:19.045Z,6.80
2023-07-07T07:50:47.131Z,11.50
2023-07-07T07:53:14.882Z,7.32
2023-07-07T07:55:43.062Z,6.70
2023-07-07T07:58:11.103Z,7.28
2023-07-07T08:00:39.146Z,8.07
2023-07-07T08:03:07.172Z,10.00
2023-07-07T08:05:35.390Z,6.13
2023-07-07T08:08:07.014Z,8.63
2023-07-07T08:10:38.248Z,26.92
2023-07-07T08:13:06.094Z,7.18
2023-07-07T08:15:34.363Z,6.72
2023-07-07T08:18:02.268Z,6.60
2023-07-07T08:20:31.963Z,7.78
2023-07-07T08:22:59.802Z,5.97
2023-07-07T08:25:28.675Z,6.20
2023-07-07T08:30:27.564Z,5.60
2023-07-07T08:32:55.891Z,7.25
2023-07-07T08:35:24.024Z,7.68
2023-07-07T08:37:51.832Z,6.60
2023-07-07T08:40:24.489Z,8.77
2023-07-07T08:42:52.844Z,6.40
2023-07-07T08:48:09.603Z,7.38
2023-07-07T08:50:37.976Z,7.82
2023-07-07T08:53:05.757Z,6.70
2023-07-07T08:55:58.121Z,7.65
2023-07-07T08:58:42.957Z,7.85
2023-07-07T09:01:30.902Z,6.50
2023-07-07T09:04:06.685Z,6.10
2023-07-07T09:06:40.899Z,7.32
2023-07-07T09:09:27.786Z,7.75
2023-07-07T09:11:58.799Z,8.70
2023-07-07T09:17:00.016Z,7.63
2023-07-07T09:19:36.594Z,7.13
2023-07-07T09:22:20.609Z,8.25
2023-07-07T09:25:02.074Z,8.73
2023-07-07T09:27:37.360Z,5.82
2023-07-07T09:30:25.473Z,6.03
2023-07-07T09:32:54.118Z,6.13
2023-07-07T09:35:26.077Z,8.73
2023-07-07T09:38:04.746Z,7.43
2023-07-07T09:40:56.649Z,7.55
2023-07-07T09:43:58.662Z,7.32
2023-07-07T09:46:33.396Z,8.70
2023-07-07T09:49:33.827Z,6.78
2023-07-07T09:52:22.016Z,7.30
2023-07-07T09:54:51.596Z,6.75
2023-07-07T09:57:41.623Z,5.95
2023-07-07T10:00:17.441Z,8.00
2023-07-07T10:02:47.133Z,6.38
2023-07-07T10:05:37.988Z,5.78
2023-07-07T10:08:09.929Z,6.10
2023-07-07T10:10:38.556Z,7.47
2023-07-07T10:13:11.823Z,11.15
2023-07-07T10:16:01.860Z,6.70
2023-07-07T10:18:49.074Z,8.00
2023-07-07T10:21:22.736Z,6.70
2023-07-07T10:23:51.874Z,6.40
2023-07-07T10:26:21.079Z,6.90
2023-07-07T10:28:49.037Z,6.70
2023-07-07T10:31:18.267Z,7.15
2023-07-07T10:33:51.188Z,5.75
2023-07-07T10:36:24.997Z,5.32
2023-07-07T10:38:57.925Z,7.78
2023-07-07T10:41:28.663Z,6.82
2023-07-07T10:43:59.176Z,7.93
2023-07-07T10:46:27.394Z,7.28
2023-07-07T10:49:00.835Z,7.03
2023-07-07T10:51:47.895Z,6.35
2023-07-07T10:54:38.340Z,7.50
2023-07-07T10:57:47.727Z,7.85
2023-07-07T11:00:41.843Z,5.93
2023-07-07T11:06:04.107Z,7.53
2023-07-07T11:08:58.591Z,7.20
2023-07-07T11:11:38.395Z,6.97
2023-07-07T11:14:15.274Z,6.88
2023-07-07T11:16:46.764Z,7.53
2023-07-07T11:19:55.649Z,8.00
2023-07-07T11:22:42.442Z,8.52
2023-07-07T11:25:47.424Z,6.70
2023-07-07T11:28:48.289Z,5.93
2023-07-07T11:31:22.667Z,8.52
2023-07-07T11:34:13.361Z,8.55
2023-07-07T11:36:59.307Z,6.60
2023-07-07T11:39:32.746Z,6.25
2023-07-07T11:42:26.806Z,6.82
2023-07-07T11:45:09.323Z,7.55
2023-07-07T11:48:06.791Z,8.05
2023-07-07T11:50:50.961Z,8.93
2023-07-07T11:53:43.826Z,6.40
2023-07-07T11:56:14.941Z,7.75
2023-07-07T11:59:20.226Z,6.75
2023-07-07T12:01:52.248Z,10.48
2023-07-07T12:04:36.940Z,8.18
2023-07-07T12:07:12.510Z,6.78
2023-07-07T12:09:50.083Z,6.75
2023-07-07T12:12:40.384Z,9.43
2023-07-07T12:15:20.615Z,7.85
2023-07-07T12:17:55.954Z,7.17
2023-07-07T12:20:28.826Z,7.25
2023-07-07T12:23:00.045Z,5.95
2023-07-07T12:25:30.186Z,8.38
2023-07-07T12:27:59.619Z,7.20
2023-07-07T12:30:36.616Z,8.60
2023-07-07T12:33:05.641Z,7.07
2023-07-07T12:35:43.951Z,8.82
2023-07-07T12:38:11.722Z,8.40
2023-07-07T12:40:44.282Z,8.23
2023-07-07T12:43:54.194Z,7.28
2023-07-07T12:46:35.196Z,7.53
2023-07-07T12:49:17.633Z,6.95
2023-07-07T12:51:46.466Z,8.85
2023-07-07T12:54:34.601Z,8.15
2023-07-07T12:57:12.342Z,9.20
2023-07-07T12:59:41.342Z,7.90
2023-07-07T13:02:21.037Z,7.80
2023-07-07T13:04:54.428Z,8.27
2023-07-07T13:07:30.243Z,6.85
2023-07-07T13:09:58.377Z,8.52
2023-07-07T13:12:38.642Z,7.20
2023-07-07T13:15:17.269Z,10.70
2023-07-07T13:17:46.283Z,8.45
2023-07-07T13:20:20.227Z,9.02
2023-07-07T13:22:56.891Z,8.23
2023-07-07T13:25:31.391Z,8.85
2023-07-07T13:27:59.544Z,9.77
2023-07-07T13:30:40.318Z,8.57
2023-07-07T13:33:18.524Z,8.70
2023-07-07T13:35:50.854Z,8.07
2023-07-07T13:38:21.291Z,8.45
2023-07-07T13:40:49.842Z,8.27
2023-07-07T13:43:46.799Z,6.90
2023-07-07T13:46:27.383Z,7.28
2023-07-07T13:51:28.389Z,9.77
2023-07-07T13:53:59.253Z,7.40
2023-07-07T13:56:28.722Z,8.80
2023-07-07T13:58:57.516Z,8.38
2023-07-07T14:01:38.560Z,8.00
2023-07-07T14:04:22.253Z,8.85
2023-07-07T14:06:51.041Z,8.43
2023-07-07T14:09:30.897Z,8.10
2023-07-07T14:11:59.343Z,9.23
2023-07-07T14:14:28.852Z,7.28
2023-07-07T14:17:20.001Z,9.77
2023-07-07T14:20:03.192Z,8.45
2023-07-07T14:22:33.443Z,13.38
2023-07-07T14:25:07.082Z,8.82
2023-07-07T14:27:35.076Z,10.05
2023-07-07T14:30:05.887Z,9.50
2023-07-07T14:32:41.519Z,8.90
2023-07-07T14:35:31.726Z,10.45
2023-07-07T14:38:03.447Z,8.57
2023-07-07T14:40:33.494Z,9.48
2023-07-07T14:43:04.376Z,8.48
2023-07-07T14:45:35.606Z,11.65
2023-07-07T14:48:03.710Z,8.45
2023-07-07T14:50:32.358Z,8.68
2023-07-07T14:53:01.263Z,9.50
2023-07-07T14:55:31.141Z,12.23
2023-07-07T14:58:01.976Z,9.20
2023-07-07T15:00:37.323Z,10.95
2023-07-07T15:03:39.419Z,7.70
2023-07-07T15:06:08.303Z,9.65
2023-07-07T15:08:38.522Z,7.53
2023-07-07T15:11:12.038Z,7.85
2023-07-07T15:13:40.979Z,9.98
2023-07-07T15:16:13.520Z,7.82
2023-07-07T15:18:41.335Z,8.50
2023-07-07T15:21:21.716Z,9.07
2023-07-07T15:23:49.792Z,8.05
2023-07-07T15:26:28.450Z,9.15
2023-07-07T15:28:57.481Z,10.57
2023-07-07T15:31:26.423Z,10.60
2023-07-07T15:33:55.435Z,9.05
2023-07-07T15:36:24.523Z,8.88
2023-07-07T15:38:56.729Z,7.60
2023-07-07T15:41:28.560Z,8.20
2023-07-07T15:43:56.776Z,9.45
2023-07-07T15:46:40.767Z,9.23
2023-07-07T15:49:15.201Z,8.07
2023-07-07T15:51:45.199Z,8.30
2023-07-07T15:54:16.191Z,8.00
2023-07-07T15:56:46.054Z,8.98
2023-07-07T15:59:21.121Z,8.95
2023-07-07T16:01:55.327Z,7.32
2023-07-07T16:04:23.883Z,10.40
2023-07-07T16:06:55.713Z,9.70
2023-07-07T16:09:27.096Z,6.68
2023-07-07T16:11:55.154Z,8.20
2023-07-07T16:14:22.949Z,8.90
2023-07-07T16:16:50.992Z,7.70
2023-07-07T16:19:19.976Z,10.00
2023-07-07T16:21:48.633Z,9.02
2023-07-07T16:24:16.324Z,7.72
2023-07-07T16:26:49.004Z,8.75
2023-07-07T16:29:18.419Z,7.75
2023-07-07T16:31:47.285Z,7.10
2023-07-07T16:34:15.419Z,7.55
2023-07-07T16:36:43.609Z,6.32
2023-07-07T16:39:19.270Z,8.05
2023-07-07T16:41:47.794Z,7.68
2023-07-07T16:44:16.432Z,7.15
2023-07-07T16:46:44.789Z,7.57
2023-07-07T16:49:14.621Z,8.00
2023-07-07T16:51:43.377Z,7.17
2023-07-07T16:54:11.351Z,8.80
2023-07-07T16:56:43.783Z,6.57
2023-07-07T16:59:17.138Z,8.07
2023-07-07T17:01:47.618Z,6.95
2023-07-07T17:04:16.017Z,7.33
2023-07-07T17:06:46.428Z,18.70
2023-07-07T17:09:19.386Z,7.72
2023-07-07T17:11:47.801Z,9.77
2023-07-07T17:14:15.701Z,18.63
2023-07-07T17:16:44.773Z,9.30
2023-07-07T17:19:12.628Z,8.65
2023-07-07T17:21:40.773Z,7.63
2023-07-07T17:24:08.512Z,8.25
2023-07-07T17:26:38.513Z,7.03
2023-07-07T17:29:15.048Z,8.57
2023-07-07T17:31:44.217Z,8.10
2023-07-07T17:34:13.958Z,10.48
2023-07-07T17:36:42.409Z,7.85
2023-07-07T17:39:15.853Z,7.32
2023-07-07T17:41:44.629Z,8.43
2023-07-07T17:44:12.828Z,7.72
2023-07-07T17:46:42.588Z,8.95
2023-07-07T17:49:19.352Z,8.00
2023-07-07T17:51:48.061Z,8.63
2023-07-07T17:54:16.440Z,23.98
2023-07-07T17:56:44.669Z,8.27
2023-07-07T17:59:23.298Z,8.55
2023-07-07T18:01:56.119Z,8.68
2023-07-07T18:04:24.158Z,7.20
2023-07-07T18:06:53.645Z,7.88
2023-07-07T18:09:21.444Z,7.97
2023-07-07T18:11:52.133Z,9.27
2023-07-07T18:14:24.173Z,9.50
2023-07-07T18:17:00.495Z,16.02
2023-07-07T18:20:27.103Z,9.93
2023-07-07T18:22:29.189Z,10.52
2023-07-07T18:24:57.081Z,8.70
2023-07-07T18:27:25.181Z,10.35
2023-07-07T18:29:52.972Z,8.95
2023-07-07T18:32:21.123Z,9.27
2023-07-07T18:34:49.076Z,8.10
2023-07-07T18:37:17.534Z,11.05
2023-07-07T18:39:48.954Z,12.02
2023-07-07T18:42:17.889Z,15.57
2023-07-07T18:44:47.325Z,11.70
2023-07-07T18:47:17.766Z,17.88
2023-07-07T18:49:45.981Z,10.30
2023-07-07T18:52:15.351Z,17.55
2023-07-07T18:54:43.404Z,25.45
2023-07-07T18:57:11.709Z,11.52
2023-07-07T18:59:39.902Z,22.30
2023-07-07T19:02:15.246Z,22.70
2023-07-07T19:04:44.458Z,8.98
2023-07-07T19:07:13.668Z,12.20
2023-07-07T19:09:43.337Z,16.65
2023-07-07T19:12:14.871Z,24.40
2023-07-07T19:14:42.682Z,15.93
2023-07-07T19:17:13.119Z,42.72
2023-07-07T19:19:43.818Z,20.52
2023-07-07T19:22:13.538Z,11.35
2023-07-07T19:24:41.377Z,12.13
2023-07-07T19:27:11.951Z,10.90
2023-07-07T19:29:42.226Z,10.52
2023-07-07T19:32:16.784Z,12.73
2023-07-07T19:34:44.953Z,8.85
2023-07-07T19:37:48.374Z,9.25
2023-07-07T19:40:33.218Z,10.13
2023-07-07T19:43:01.019Z,9.02
2023-07-07T19:45:29.271Z,13.48
2023-07-07T19:47:57.056Z,9.38
2023-07-07T19:50:31.049Z,10.05
2023-07-07T19:52:58.900Z,10.80
2023-07-07T19:55:26.981Z,16.40
2023-07-07T19:57:54.766Z,20.05
2023-07-07T20:00:23.860Z,12.25
2023-07-07T20:02:52.035Z,19.05
2023-07-07T20:05:20.328Z,27.33
2023-07-07T20:07:50.795Z,35.75
2023-07-07T20:10:21.432Z,30.63
2023-07-07T20:12:49.642Z,27.08
2023-07-07T20:15:20.148Z,10.67
2023-07-07T20:17:49.165Z,10.50
2023-07-07T20:20:19.288Z,24.27
2023-07-07T20:22:47.685Z,46.03
2023-07-07T20:25:16.731Z,30.00
2023-07-07T20:27:46.070Z,15.23
2023-07-07T20:30:20.423Z,13.60
2023-07-07T20:32:50.048Z,10.35
2023-07-07T20:35:21.664Z,11.65
2023-07-07T20:37:51.187Z,11.18
2023-07-07T20:40:23.318Z,15.90
2023-07-07T20:42:52.114Z,13.68
2023-07-07T20:45:20.913Z,9.98
2023-07-07T20:47:48.814Z,19.08
2023-07-07T20:50:19.038Z,42.92
2023-07-07T20:52:47.373Z,22.35
2023-07-07T20:55:16.945Z,21.02
2023-07-07T20:57:45.236Z,12.52
2023-07-07T21:00:19.093Z,10.80
2023-07-07T21:02:46.991Z,9.38
2023-07-07T21:05:15.783Z,9.40
2023-07-07T21:07:44.825Z,8.88
2023-07-07T21:10:21.518Z,8.93
2023-07-07T21:12:55.186Z,9.93
2023-07-07T21:15:23.769Z,11.18
2023-07-07T21:17:51.649Z,10.98
2023-07-07T21:20:38.395Z,8.65
2023-07-07T21:23:10.092Z,11.30
2023-07-07T21:25:45.384Z,16.35
2023-07-07T21:28:16.347Z,16.02
2023-07-07T21:30:48.767Z,10.70
2023-07-07T21:33:17.960Z,10.02
2023-07-07T21:35:46.161Z,12.88
2023-07-07T21:38:16.577Z,12.05
2023-07-07T21:40:45.458Z,11.05
2023-07-07T21:43:13.357Z,11.48
2023-07-07T21:45:41.432Z,26.55
2023-07-07T21:48:18.274Z,23.95
2023-07-07T21:50:46.307Z,13.40
2023-07-07T21:53:14.094Z,13.30
2023-07-07T21:55:42.245Z,10.95
2023-07-07T21:58:10.741Z,11.40
2023-07-07T22:00:39.608Z,8.55
2023-07-07T22:03:16.456Z,8.65
2023-07-07T22:05:49.840Z,8.52
2023-07-07T22:08:18.655Z,8.75
2023-07-07T22:10:52.040Z,12.10
2023-07-07T22:13:20.155Z,8.20
2023-07-07T22:15:50.224Z,9.73
2023-07-07T22:18:20.058Z,8.50
2023-07-07T22:21:01.084Z,8.88
2023-07-07T22:23:30.236Z,10.15
2023-07-07T22:26:00.384Z,10.00
2023-07-07T22:28:33.218Z,9.30
2023-07-07T22:31:02.622Z,10.48
2023-07-07T22:33:30.966Z,11.68
2023-07-07T22:35:59.517Z,10.38
2023-07-07T22:38:28.945Z,9.88
2023-07-07T22:40:59.141Z,10.35
2023-07-07T22:43:27.314Z,10.03
2023-07-07T22:45:58.394Z,9.77
2023-07-07T22:48:26.724Z,9.30
2023-07-07T22:50:54.734Z,10.40
2023-07-07T22:53:22.558Z,9.75
2023-07-07T22:55:50.758Z,9.32
2023-07-07T22:58:20.583Z,8.35
2023-07-07T23:00:50.121Z,8.77
2023-07-07T23:03:18.262Z,8.75
2023-07-07T23:05:47.373Z,12.02
2023-07-07T23:08:22.135Z,9.05
2023-07-07T23:10:51.947Z,11.27
2023-07-07T23:13:20.329Z,10.27
2023-07-07T23:15:48.461Z,9.48
2023-07-07T23:18:17.397Z,8.68
2023-07-07T23:20:45.556Z,10.18
2023-07-07T23:23:21.992Z,9.07
2023-07-07T23:25:58.353Z,9.02
2023-07-07T23:28:28.861Z,10.27
2023-07-07T23:31:07.771Z,12.27
2023-07-07T23:33:38.321Z,9.13
2023-07-07T23:36:17.086Z,8.98
2023-07-07T23:38:45.751Z,10.45
2023-07-07T23:41:14.802Z,9.18
2023-07-07T23:43:42.586Z,9.65
2023-07-07T23:46:15.228Z,10.68
2023-07-07T23:48:44.337Z,10.82
2023-07-07T23:51:16.302Z,9.82
2023-07-07T23:53:46.613Z,9.98
2023-07-07T23:56:33.239Z,7.95
2023-07-07T23:59:01.196Z,10.93
